Time;durP1;ratioP1;P1;durP2;ratioP2;P2;SDS_P1;SDS_P2;PMS_P1;PMS_P2;Temp;Humidity;BMP_temperature;BMP_pressure;BME280_temperature;BME280_humidity;BME280_pressure;Samples;Min_cycle;Max_cycle;Signal;HPM_P1;HPM_P2
2023/01/20 00:01:23;;;;;;;7.57;2.80;;;-0.10;99.90;;;;;;5112812;27;20039;-85
2023/01/20 00:03:49;;;;;;;6.32;2.92;;;-0.10;99.90;;;;;;5128029;27;20035;-85
2023/01/20 00:06:15;;;;;;;6.70;3.08;;;-0.10;99.90;;;;;;5132548;27;20043;-85
2023/01/20 00:08:41;;;;;;;9.20;3.67;;;0.00;99.90;;;;;;5114931;27;20035;-85
2023/01/20 00:11:09;;;;;;;9.40;3.65;;;0.00;99.90;;;;;;5123638;27;20115;-86
2023/01/20 00:13:36;;;;;;;7.22;3.30;;;0.20;99.90;;;;;;5127668;27;20079;-85
2023/01/20 00:16:07;;;;;;;8.82;3.63;;;0.20;99.90;;;;;;5111961;28;20032;-85
2023/01/20 00:18:33;;;;;;;7.75;3.50;;;0.40;99.90;;;;;;5111969;28;20036;-86
2023/01/20 00:21:08;;;;;;;8.35;3.22;;;0.40;99.90;;;;;;5111801;28;20130;-85
2023/01/20 00:23:34;;;;;;;10.70;3.85;;;0.50;99.90;;;;;;5112227;28;20466;-86
2023/01/20 00:26:04;;;;;;;9.05;4.18;;;0.60;99.90;;;;;;5121947;27;20079;-86
2023/01/20 00:28:30;;;;;;;7.80;3.33;;;0.60;99.90;;;;;;5131620;27;20042;-85
2023/01/20 00:30:55;;;;;;;7.85;3.50;;;0.60;99.90;;;;;;5132508;27;20036;-85
2023/01/20 00:33:21;;;;;;;7.93;3.67;;;0.60;99.90;;;;;;5114286;27;20027;-86
2023/01/20 00:35:46;;;;;;;8.30;4.07;;;0.70;99.90;;;;;;5147811;27;20039;-86
2023/01/20 00:38:14;;;;;;;8.63;3.75;;;0.70;99.90;;;;;;5114109;27;20065;-86
2023/01/20 00:40:39;;;;;;;11.23;4.78;;;0.70;99.90;;;;;;5127896;27;20039;-86
2023/01/20 00:43:05;;;;;;;11.60;4.85;;;0.80;99.90;;;;;;5131414;27;20126;-86
2023/01/20 00:45:30;;;;;;;10.52;4.90;;;0.80;99.90;;;;;;5113632;27;20096;-86
2023/01/20 00:47:56;;;;;;;12.43;5.55;;;0.80;99.90;;;;;;5114163;27;20039;-86
2023/01/20 00:50:22;;;;;;;13.38;6.45;;;0.90;99.90;;;;;;5131651;27;20110;-86
2023/01/20 00:52:47;;;;;;;15.02;7.75;;;0.90;99.90;;;;;;5125451;27;20043;-86
2023/01/20 00:55:13;;;;;;;14.50;7.85;;;0.90;99.90;;;;;;5093072;28;20039;-86
2023/01/20 00:57:38;;;;;;;15.50;7.88;;;0.90;99.90;;;;;;5111776;27;20119;-86
2023/01/20 01:00:04;;;;;;;15.20;7.22;;;0.90;99.90;;;;;;5111620;28;20046;-86
2023/01/20 01:02:30;;;;;;;16.90;9.48;;;0.90;99.90;;;;;;5093187;28;20163;-87
2023/01/20 01:04:56;;;;;;;14.15;6.47;;;1.00;99.90;;;;;;5110987;28;20155;-86
2023/01/20 01:07:21;;;;;;;14.05;7.75;;;1.00;99.90;;;;;;5111237;27;20071;-86
2023/01/20 01:09:47;;;;;;;16.67;8.73;;;1.00;99.90;;;;;;5111068;27;20044;-87
2023/01/20 01:12:12;;;;;;;15.15;7.50;;;1.10;99.90;;;;;;5111502;28;20040;-86
2023/01/20 01:14:38;;;;;;;14.02;7.15;;;1.10;99.90;;;;;;5127696;27;20036;-86
2023/01/20 01:17:04;;;;;;;14.70;8.27;;;1.10;99.90;;;;;;5111221;28;20337;-88
2023/01/20 01:19:29;;;;;;;16.05;7.93;;;1.10;99.90;;;;;;5126311;27;20139;-87
2023/01/20 01:21:55;;;;;;;16.55;8.23;;;1.10;99.90;;;;;;5111301;27;20074;-87
2023/01/20 01:24:20;;;;;;;16.70;8.15;;;1.10;99.90;;;;;;5110728;27;20134;-86
2023/01/20 01:26:46;;;;;;;12.85;6.50;;;1.10;99.90;;;;;;5092809;28;20139;-87
2023/01/20 01:29:12;;;;;;;12.38;6.07;;;1.10;99.90;;;;;;5092648;28;20047;-87
2023/01/20 01:31:37;;;;;;;15.10;8.02;;;1.10;99.90;;;;;;5092694;28;20491;-86
2023/01/20 01:34:03;;;;;;;13.27;7.55;;;1.20;99.90;;;;;;5110454;28;20154;-87
2023/01/20 01:36:29;;;;;;;14.60;8.38;;;1.20;99.90;;;;;;5110466;27;20517;-86
2023/01/20 01:38:54;;;;;;;14.55;7.40;;;1.10;99.90;;;;;;5075806;28;20381;-87
2023/01/20 01:41:20;;;;;;;13.23;6.63;;;1.10;99.90;;;;;;5109100;27;20039;-86
2023/01/20 01:43:59;;;;;;;14.18;7.18;;;1.10;99.90;;;;;;5112972;27;20046;-87
2023/01/20 01:46:27;;;;;;;14.70;7.78;;;1.20;99.90;;;;;;5096967;28;20044;-87
2023/01/20 01:48:53;;;;;;;15.20;8.15;;;1.20;99.90;;;;;;5109616;28;20074;-87
2023/01/20 01:51:26;;;;;;;14.60;7.78;;;1.10;99.90;;;;;;5110548;28;20044;-87
2023/01/20 01:54:02;;;;;;;12.27;6.85;;;1.10;99.90;;;;;;5110720;28;20552;-87
2023/01/20 01:56:29;;;;;;;11.07;5.97;;;1.10;99.90;;;;;;5128286;27;20035;-87
2023/01/20 01:58:58;;;;;;;10.73;5.25;;;1.10;99.90;;;;;;5146973;27;20065;-87
2023/01/20 02:01:25;;;;;;;12.38;6.28;;;1.10;99.90;;;;;;5130118;27;20118;-87
2023/01/20 02:04:09;;;;;;;12.40;6.95;;;1.10;99.90;;;;;;5130799;28;20039;-88
2023/01/20 02:06:41;;;;;;;15.00;8.13;;;1.10;99.90;;;;;;5112568;28;20069;-87
2023/01/20 02:09:07;;;;;;;15.05;7.38;;;1.10;99.90;;;;;;5118510;27;20047;-86
2023/01/20 02:11:40;;;;;;;13.15;7.60;;;1.00;99.90;;;;;;5110112;28;20379;-87
2023/01/20 02:14:07;;;;;;;14.65;8.55;;;1.00;99.90;;;;;;5110394;28;20043;-86
2023/01/20 02:16:38;;;;;;;17.98;8.23;;;1.00;99.90;;;;;;5110460;28;20440;-87
2023/01/20 02:19:22;;;;;;;14.52;7.18;;;1.00;99.90;;;;;;5110382;28;20046;-86
2023/01/20 02:22:09;;;;;;;13.57;7.30;;;1.00;99.90;;;;;;5109782;27;20048;-87
2023/01/20 02:24:41;;;;;;;12.82;6.88;;;1.00;99.90;;;;;;5091803;28;20048;-86
2023/01/20 02:27:24;;;;;;;14.10;8.07;;;1.00;99.90;;;;;;5108869;28;20043;-86
2023/01/20 02:30:10;;;;;;;15.88;7.50;;;1.00;99.90;;;;;;5114067;27;20036;-86
2023/01/20 02:32:45;;;;;;;12.98;6.97;;;1.00;99.90;;;;;;5091866;28;20050;-87
2023/01/20 02:35:21;;;;;;;16.20;7.93;;;1.00;99.90;;;;;;5109967;28;20047;-87
2023/01/20 02:38:11;;;;;;;16.08;8.52;;;1.00;99.90;;;;;;5130804;27;20047;-86
2023/01/20 02:41:12;;;;;;;19.30;8.80;;;1.00;99.90;;;;;;5084425;27;20503;-87
2023/01/20 02:43:50;;;;;;;16.98;8.82;;;1.00;99.90;;;;;;5135283;27;20402;-87
2023/01/20 02:46:27;;;;;;;17.23;9.10;;;0.90;99.90;;;;;;5115927;27;20487;-87
2023/01/20 02:48:52;;;;;;;16.02;9.32;;;0.90;99.90;;;;;;5105191;28;20096;-87
2023/01/20 02:51:36;;;;;;;18.95;8.48;;;0.90;99.90;;;;;;5095856;28;20051;-88
2023/01/20 02:54:07;;;;;;;18.85;9.98;;;0.90;99.90;;;;;;5107805;27;20043;-87
2023/01/20 02:56:34;;;;;;;19.20;10.35;;;0.90;99.90;;;;;;5116283;27;20043;-87
2023/01/20 02:59:04;;;;;;;17.58;8.85;;;0.90;99.90;;;;;;5101228;27;20038;-87
2023/01/20 03:01:56;;;;;;;18.73;8.97;;;0.90;99.90;;;;;;5095394;28;20391;-87
2023/01/20 03:04:24;;;;;;;;;;;0.90;99.90;;;;;;5094901;28;20478;-87
2023/01/20 03:06:53;;;;;;;17.10;8.85;;;0.90;99.90;;;;;;5133985;27;19961;-87
2023/01/20 03:09:25;;;;;;;19.85;10.10;;;0.90;99.90;;;;;;5134165;27;20090;-87
2023/01/20 03:11:56;;;;;;;20.77;9.98;;;0.90;99.90;;;;;;5115521;27;20057;-87
2023/01/20 03:14:22;;;;;;;;;;;0.90;99.90;;;;;;5142945;27;20057;-87
2023/01/20 03:16:49;;;;;;;17.67;8.43;;;0.90;99.90;;;;;;5113589;28;19915;-87
2023/01/20 03:19:16;;;;;;;17.58;8.73;;;0.90;99.90;;;;;;5094812;28;20051;-87
2023/01/20 03:21:42;;;;;;;17.77;9.27;;;0.90;99.90;;;;;;5112405;28;20051;-87
2023/01/20 03:24:08;;;;;;;19.25;9.63;;;0.90;99.90;;;;;;5113156;28;20059;-86
2023/01/20 03:26:34;;;;;;;19.30;10.07;;;0.80;99.90;;;;;;5078171;28;20053;-87
2023/01/20 03:29:05;;;;;;;18.83;9.05;;;0.90;99.90;;;;;;5113213;27;20119;-86
2023/01/20 03:31:45;;;;;;;16.95;8.23;;;0.90;99.90;;;;;;5132081;27;20039;-87
2023/01/20 03:34:14;;;;;;;15.98;7.57;;;0.90;99.90;;;;;;5119877;27;20115;-87
2023/01/20 03:36:43;;;;;;;20.10;10.05;;;0.80;99.90;;;;;;5113773;28;20043;-86
2023/01/20 03:39:09;;;;;;;18.08;9.48;;;0.90;99.90;;;;;;5094916;28;20040;-87
2023/01/20 03:41:56;;;;;;;18.17;9.48;;;0.90;99.90;;;;;;5112994;28;20043;-87
2023/01/20 03:44:53;;;;;;;18.73;9.25;;;0.90;99.90;;;;;;5121616;27;20042;-87
2023/01/20 03:47:35;;;;;;;20.52;9.68;;;0.90;99.90;;;;;;5127284;27;20031;-88
2023/01/20 03:50:29;;;;;;;17.65;8.52;;;0.90;99.90;;;;;;5094409;28;20071;-87
2023/01/20 03:53:21;;;;;;;19.35;8.55;;;0.90;99.90;;;;;;5093448;28;20066;-87
2023/01/20 03:55:54;;;;;;;17.95;9.23;;;0.90;99.90;;;;;;5112741;28;20411;-86
2023/01/20 03:58:33;;;;;;;20.45;8.95;;;0.90;99.90;;;;;;5093841;28;20480;-86
2023/01/20 04:01:03;;;;;;;19.95;9.88;;;0.90;99.90;;;;;;5101813;27;20122;-86
2023/01/20 04:03:31;;;;;;;17.90;8.93;;;0.90;99.90;;;;;;5113434;27;20047;-86
2023/01/20 04:06:00;;;;;;;18.00;8.55;;;0.90;99.90;;;;;;5097911;27;20198;-85
2023/01/20 04:08:29;;;;;;;18.85;9.13;;;0.90;99.90;;;;;;5109526;28;20383;-86
2023/01/20 04:10:58;;;;;;;17.17;8.90;;;0.90;99.90;;;;;;5112740;28;20046;-86
2023/01/20 04:13:24;;;;;;;19.10;8.65;;;0.90;99.90;;;;;;5112190;28;20081;-86
2023/01/20 04:15:49;;;;;;;17.20;8.65;;;0.90;99.90;;;;;;5130669;27;20395;-87
2023/01/20 04:18:20;;;;;;;19.75;9.20;;;0.90;99.90;;;;;;5133137;27;20031;-86
2023/01/20 04:20:55;;;;;;;22.05;9.85;;;0.90;99.90;;;;;;5148830;27;20053;-87
2023/01/20 04:23:28;;;;;;;16.08;6.75;;;0.90;99.90;;;;;;5112689;27;20035;-87
2023/01/20 04:25:53;;;;;;;16.50;8.10;;;0.90;99.90;;;;;;5133401;27;20051;-86
2023/01/20 04:28:19;;;;;;;17.48;8.60;;;0.90;99.90;;;;;;5113895;27;20047;-85
2023/01/20 04:30:45;;;;;;;16.95;7.85;;;0.90;99.90;;;;;;5113929;27;20483;-85
2023/01/20 04:33:10;;;;;;;16.45;7.28;;;0.90;99.90;;;;;;5111541;28;20044;-85
2023/01/20 04:35:36;;;;;;;16.63;7.22;;;0.90;99.90;;;;;;5115921;28;20468;-85
2023/01/20 04:38:02;;;;;;;18.13;7.88;;;0.90;99.90;;;;;;5115508;27;20478;-86
2023/01/20 04:40:27;;;;;;;17.85;8.70;;;0.80;99.90;;;;;;5118405;27;20440;-87
2023/01/20 04:42:53;;;;;;;19.73;8.57;;;0.90;99.90;;;;;;5139214;27;20035;-86
2023/01/20 04:45:18;;;;;;;18.35;8.32;;;0.90;99.90;;;;;;5120123;27;20038;-87
2023/01/20 04:47:44;;;;;;;19.08;8.75;;;0.90;99.90;;;;;;5120203;27;20039;-85
2023/01/20 04:50:11;;;;;;;17.52;7.45;;;0.90;99.90;;;;;;5135999;27;20035;-85
2023/01/20 04:52:37;;;;;;;18.92;9.27;;;0.90;99.90;;;;;;5112356;28;20036;-85
2023/01/20 04:55:02;;;;;;;19.27;9.43;;;0.90;99.90;;;;;;5093765;28;20100;-86
2023/01/20 04:57:28;;;;;;;17.70;7.53;;;0.90;99.90;;;;;;5093035;28;20048;-85
2023/01/20 04:59:54;;;;;;;16.40;8.63;;;0.90;99.90;;;;;;5111601;28;20070;-85
2023/01/20 05:02:19;;;;;;;19.40;10.00;;;0.90;99.90;;;;;;5111457;28;20040;-86
2023/01/20 05:04:45;;;;;;;18.08;9.27;;;0.90;99.90;;;;;;5093321;28;20510;-85
2023/01/20 05:07:11;;;;;;;18.88;8.35;;;0.90;99.90;;;;;;5095429;27;20101;-86
2023/01/20 05:09:36;;;;;;;21.75;10.15;;;0.90;99.90;;;;;;5132386;27;20042;-85
2023/01/20 05:12:02;;;;;;;17.90;8.18;;;0.90;99.90;;;;;;5112913;27;20032;-86
2023/01/20 05:14:28;;;;;;;18.58;9.02;;;0.90;99.90;;;;;;5131776;27;20054;-86
2023/01/20 05:16:54;;;;;;;21.02;9.57;;;0.90;99.90;;;;;;5131822;27;20035;-86
2023/01/20 05:19:19;;;;;;;19.25;8.82;;;0.90;99.90;;;;;;5112938;27;20051;-86
2023/01/20 05:21:45;;;;;;;22.48;10.45;;;0.90;99.90;;;;;;5112989;27;20043;-86
2023/01/20 05:24:11;;;;;;;18.75;9.45;;;0.90;99.90;;;;;;5131517;27;20062;-86
2023/01/20 05:26:36;;;;;;;21.05;10.73;;;0.90;99.90;;;;;;5112939;27;20043;-86
2023/01/20 05:29:02;;;;;;;18.30;9.07;;;0.90;99.90;;;;;;5131253;27;20031;-86
2023/01/20 05:31:28;;;;;;;21.85;10.93;;;0.90;99.90;;;;;;5131302;27;20043;-87
2023/01/20 05:33:54;;;;;;;21.65;10.25;;;0.90;99.90;;;;;;5131672;27;20050;-87
2023/01/20 05:36:19;;;;;;;21.20;10.82;;;0.90;99.90;;;;;;5113031;27;20039;-87
2023/01/20 05:38:45;;;;;;;24.30;11.02;;;1.00;99.90;;;;;;5092400;28;20430;-87
2023/01/20 05:41:11;;;;;;;22.30;9.65;;;0.90;99.90;;;;;;5092163;28;20054;-87
2023/01/20 05:43:37;;;;;;;21.65;10.32;;;0.90;99.90;;;;;;5095370;27;20042;-84
2023/01/20 05:46:03;;;;;;;24.70;11.95;;;0.90;99.90;;;;;;5105386;27;20039;-84
2023/01/20 05:48:29;;;;;;;21.77;10.82;;;1.00;99.90;;;;;;5092421;28;20077;-87
2023/01/20 05:50:55;;;;;;;23.48;12.20;;;1.00;99.90;;;;;;5160706;27;20078;-87
2023/01/20 05:53:21;;;;;;;27.20;11.93;;;1.00;99.90;;;;;;5151489;27;20129;-87
2023/01/20 05:55:47;;;;;;;25.52;11.07;;;1.00;99.90;;;;;;5132707;27;20037;-85
2023/01/20 05:58:13;;;;;;;23.90;12.02;;;0.90;99.90;;;;;;5131262;27;20053;-83
2023/01/20 06:00:39;;;;;;;24.90;12.38;;;1.00;99.90;;;;;;5116504;27;20040;-86
2023/01/20 06:03:04;;;;;;;22.52;12.23;;;1.00;99.90;;;;;;5144157;27;20031;-85
2023/01/20 06:05:31;;;;;;;27.75;11.80;;;1.00;99.90;;;;;;5136076;27;20031;-83
2023/01/20 06:07:57;;;;;;;22.80;11.15;;;1.00;99.90;;;;;;5112670;28;20057;-88
2023/01/20 06:10:24;;;;;;;26.92;12.95;;;1.00;99.90;;;;;;5112802;28;20418;-86
2023/01/20 06:12:54;;;;;;;24.83;11.95;;;1.00;99.90;;;;;;5112791;28;20042;-86
2023/01/20 06:15:22;;;;;;;27.92;12.57;;;1.00;99.90;;;;;;5093881;28;20412;-86
2023/01/20 06:17:48;;;;;;;25.08;12.95;;;1.00;99.90;;;;;;5090063;27;20521;-87
2023/01/20 06:20:14;;;;;;;25.40;13.20;;;1.00;99.90;;;;;;5138829;27;20043;-88
2023/01/20 06:22:39;;;;;;;25.85;13.25;;;1.00;99.90;;;;;;5134572;27;20042;-86
2023/01/20 06:25:05;;;;;;;27.40;12.50;;;1.00;99.90;;;;;;5134489;27;20059;-85
2023/01/20 06:27:31;;;;;;;26.42;11.75;;;1.00;99.90;;;;;;5106083;27;20057;-87
2023/01/20 06:29:57;;;;;;;25.92;11.98;;;1.10;99.90;;;;;;5131364;27;20118;-86
2023/01/20 06:32:22;;;;;;;25.90;12.40;;;1.10;99.90;;;;;;5134182;27;20035;-83
2023/01/20 06:34:48;;;;;;;27.92;12.82;;;1.10;99.90;;;;;;5116287;27;20535;-86
2023/01/20 06:37:13;;;;;;;25.63;12.25;;;1.10;99.90;;;;;;5115480;27;20118;-87
2023/01/20 06:39:39;;;;;;;27.58;13.15;;;1.00;99.90;;;;;;5114229;27;20039;-84
2023/01/20 06:42:05;;;;;;;23.55;12.07;;;1.10;99.90;;;;;;5099506;27;20054;-84
2023/01/20 06:44:32;;;;;;;26.92;12.48;;;1.10;99.90;;;;;;5114846;27;20051;-86
2023/01/20 06:46:58;;;;;;;29.85;14.45;;;1.10;99.90;;;;;;5132956;27;20079;-85
2023/01/20 06:49:24;;;;;;;29.25;14.95;;;1.10;99.90;;;;;;5130670;27;20071;-84
2023/01/20 06:51:50;;;;;;;28.60;14.45;;;1.10;99.90;;;;;;5139974;27;20047;-85
2023/01/20 06:54:16;;;;;;;28.73;13.77;;;1.10;99.90;;;;;;5126190;27;20067;-85
2023/01/20 06:56:41;;;;;;;27.63;13.60;;;1.10;99.90;;;;;;5115992;27;20071;-85
2023/01/20 06:59:09;;;;;;;27.58;13.55;;;1.10;99.90;;;;;;5133406;27;20066;-85
2023/01/20 07:01:34;;;;;;;28.17;13.88;;;1.10;99.90;;;;;;5115916;27;20321;-84
2023/01/20 07:04:00;;;;;;;29.92;14.70;;;1.10;99.90;;;;;;5132951;27;20035;-83
2023/01/20 07:06:34;;;;;;;30.77;15.13;;;1.10;99.90;;;;;;5133343;27;20035;-86
2023/01/20 07:09:00;;;;;;;33.08;16.52;;;1.10;99.90;;;;;;5133516;27;20071;-85
2023/01/20 07:11:27;;;;;;;32.58;15.07;;;1.10;99.90;;;;;;5133655;27;20044;-85
2023/01/20 07:13:53;;;;;;;32.55;16.33;;;1.10;99.90;;;;;;5115318;27;20383;-85
2023/01/20 07:16:19;;;;;;;35.58;16.00;;;1.10;99.90;;;;;;5133824;27;20046;-86
2023/01/20 07:18:52;;;;;;;27.80;14.07;;;1.10;99.90;;;;;;5130917;27;20049;-86
2023/01/20 07:21:18;;;;;;;34.90;15.40;;;1.10;99.90;;;;;;5110981;27;20047;-84
2023/01/20 07:23:45;;;;;;;33.28;14.77;;;1.10;99.90;;;;;;5118558;27;20483;-84
2023/01/20 07:26:22;;;;;;;29.00;15.65;;;1.10;99.90;;;;;;5097571;28;20396;-84
2023/01/20 07:28:48;;;;;;;30.17;14.70;;;1.10;99.90;;;;;;5110119;27;20043;-86
2023/01/20 07:31:19;;;;;;;28.67;14.30;;;1.10;99.90;;;;;;5115992;27;20035;-84
2023/01/20 07:33:45;;;;;;;33.20;15.43;;;1.20;99.90;;;;;;5106717;27;20054;-85
2023/01/20 07:36:13;;;;;;;27.55;13.85;;;1.20;99.90;;;;;;5128181;27;20510;-84
2023/01/20 07:38:39;;;;;;;33.63;15.50;;;1.20;99.90;;;;;;5125068;27;20041;-85
2023/01/20 07:41:09;;;;;;;36.10;17.75;;;1.20;99.90;;;;;;5128184;27;20046;-90
2023/01/20 07:43:35;;;;;;;32.60;16.73;;;1.20;99.90;;;;;;5114023;27;20034;-89
2023/01/20 07:46:02;;;;;;;32.22;15.23;;;1.20;99.90;;;;;;5114008;27;20380;-83
2023/01/20 07:48:30;;;;;;;34.03;17.30;;;1.20;99.90;;;;;;5095124;27;20114;-83
2023/01/20 07:51:01;;;;;;;31.95;13.82;;;1.20;99.90;;;;;;5107144;27;20089;-86
2023/01/20 07:53:30;;;;;;;30.92;15.05;;;1.20;99.90;;;;;;5111689;27;20118;-87
2023/01/20 07:55:59;;;;;;;32.15;16.10;;;1.20;99.90;;;;;;5139587;27;20049;-87
2023/01/20 07:58:25;;;;;;;31.67;15.68;;;1.20;99.90;;;;;;5112041;27;20115;-86
2023/01/20 08:00:50;;;;;;;30.60;15.02;;;1.20;99.90;;;;;;5115969;27;20114;-85
2023/01/20 08:03:16;;;;;;;32.08;14.60;;;1.20;99.90;;;;;;5117487;27;20043;-86
2023/01/20 08:05:42;;;;;;;31.92;16.23;;;1.20;99.90;;;;;;5142362;27;20046;-85
2023/01/20 08:08:07;;;;;;;29.73;14.20;;;1.20;99.90;;;;;;5117202;27;20035;-83
2023/01/20 08:10:33;;;;;;;34.22;16.45;;;1.20;99.90;;;;;;5114501;27;20054;-85
2023/01/20 08:12:58;;;;;;;31.55;15.32;;;1.30;99.90;;;;;;5103301;27;20036;-86
2023/01/20 08:15:24;;;;;;;31.42;14.70;;;1.20;99.90;;;;;;5112140;28;20074;-86
2023/01/20 08:17:54;;;;;;;33.92;15.20;;;1.20;99.90;;;;;;5111947;28;20039;-84
2023/01/20 08:20:20;;;;;;;35.22;15.75;;;1.30;99.90;;;;;;5122774;27;20039;-86
2023/01/20 08:22:46;;;;;;;31.52;16.00;;;1.20;99.90;;;;;;5116370;27;20051;-85
2023/01/20 08:25:11;;;;;;;29.90;14.43;;;1.30;99.90;;;;;;5104353;27;20058;-83
2023/01/20 08:27:37;;;;;;;31.30;14.07;;;1.20;99.90;;;;;;5105171;27;20051;-84
2023/01/20 08:30:03;;;;;;;32.75;15.88;;;1.30;99.90;;;;;;5128862;27;20045;-84
2023/01/20 08:32:29;;;;;;;32.25;15.02;;;1.30;99.90;;;;;;5110745;27;20535;-84
2023/01/20 08:34:55;;;;;;;33.63;16.38;;;1.30;99.90;;;;;;5106811;27;20035;-83
2023/01/20 08:37:21;;;;;;;34.20;16.80;;;1.30;99.90;;;;;;5131096;27;20053;-84
2023/01/20 08:39:46;;;;;;;33.55;15.95;;;1.30;99.90;;;;;;5110162;27;20043;-86
2023/01/20 08:42:12;;;;;;;32.05;15.95;;;1.30;99.90;;;;;;5117507;27;20640;-84
2023/01/20 08:44:37;;;;;;;35.10;15.48;;;1.30;99.90;;;;;;5131410;27;20074;-83
2023/01/20 08:47:03;;;;;;;39.20;17.55;;;1.30;99.90;;;;;;5134119;27;20053;-82
2023/01/20 08:49:29;;;;;;;37.70;17.08;;;1.30;99.90;;;;;;5119784;27;20039;-82
2023/01/20 08:51:55;;;;;;;37.22;17.65;;;1.40;99.90;;;;;;5109836;27;20057;-87
2023/01/20 08:54:21;;;;;;;38.42;17.48;;;1.30;99.90;;;;;;5115642;27;20039;-86
2023/01/20 08:56:51;;;;;;;38.67;17.88;;;1.40;99.90;;;;;;5113460;27;20047;-82
2023/01/20 08:59:18;;;;;;;39.90;18.17;;;1.40;99.90;;;;;;5131421;27;20035;-86
2023/01/20 09:01:43;;;;;;;39.05;19.10;;;1.40;99.90;;;;;;5128705;27;20078;-86
2023/01/20 09:04:10;;;;;;;37.70;18.67;;;1.40;99.90;;;;;;5114075;27;20073;-87
2023/01/20 09:06:41;;;;;;;40.78;17.55;;;1.40;99.90;;;;;;5129950;27;20056;-87
2023/01/20 09:09:07;;;;;;;39.88;18.10;;;1.40;99.90;;;;;;5136002;27;20035;-87
2023/01/20 09:11:33;;;;;;;40.25;17.30;;;1.40;99.90;;;;;;5110983;27;20047;-86
2023/01/20 09:13:58;;;;;;;37.65;17.77;;;1.40;99.90;;;;;;5118497;27;20046;-85
2023/01/20 09:16:24;;;;;;;37.35;17.52;;;1.40;99.90;;;;;;5116266;27;20035;-85
2023/01/20 09:18:49;;;;;;;44.22;19.90;;;1.40;99.90;;;;;;5135435;27;20043;-85
2023/01/20 09:21:15;;;;;;;39.05;17.65;;;1.50;99.90;;;;;;5093249;27;20040;-85
2023/01/20 09:23:46;;;;;;;39.63;18.92;;;1.50;99.90;;;;;;5102660;27;20059;-85
2023/01/20 09:26:12;;;;;;;37.67;17.15;;;1.40;99.90;;;;;;5103380;27;20044;-84
2023/01/20 09:28:38;;;;;;;40.22;18.02;;;1.50;99.90;;;;;;5116460;27;20035;-84
2023/01/20 09:31:06;;;;;;;41.38;18.55;;;1.50;99.90;;;;;;5097076;27;20039;-85
2023/01/20 09:33:34;;;;;;;39.15;19.17;;;1.50;99.90;;;;;;5131913;27;20106;-84
2023/01/20 09:36:01;;;;;;;41.35;18.23;;;1.50;99.90;;;;;;5083455;27;20069;-85
2023/01/20 09:44:55;;;;;;;36.65;16.83;;;1.50;99.90;;;;;;5020013;28;20049;-84
2023/01/20 09:47:40;;;;;;;37.17;17.23;;;1.50;99.90;;;;;;5040267;28;20411;-85
2023/01/20 09:53:15;;;;;;;40.78;17.75;;;1.60;99.90;;;;;;5040401;28;20082;-84
2023/01/20 09:55:53;;;;;;;45.10;17.00;;;1.60;99.90;;;;;;5040244;28;20041;-84
2023/01/20 09:58:39;;;;;;;39.33;17.50;;;1.60;99.90;;;;;;5047061;28;20037;-85
2023/01/20 10:01:29;;;;;;;37.35;16.10;;;1.60;99.90;;;;;;5034221;28;20045;-85
2023/01/20 10:04:10;;;;;;;36.40;16.85;;;1.60;99.90;;;;;;5018289;28;20080;-86
2023/01/20 10:06:53;;;;;;;36.58;16.58;;;1.60;99.90;;;;;;5046043;28;20037;-85
2023/01/20 10:09:48;;;;;;;38.72;16.92;;;1.70;99.90;;;;;;5011467;28;20068;-85
2023/01/20 10:12:34;;;;;;;34.55;14.65;;;1.70;99.90;;;;;;5011327;28;20096;-86
2023/01/20 10:15:13;;;;;;;36.90;18.20;;;1.70;99.90;;;;;;5037113;28;20048;-86
2023/01/20 10:17:44;;;;;;;38.28;17.77;;;1.70;99.90;;;;;;5127557;27;20480;-86
2023/01/20 10:20:10;;;;;;;40.13;16.35;;;1.70;99.90;;;;;;5113913;27;20091;-87
2023/01/20 10:23:02;;;;;;;33.45;16.35;;;1.80;99.90;;;;;;5112712;27;20441;-89
2023/01/20 10:25:40;;;;;;;35.55;17.73;;;1.70;99.90;;;;;;5125165;27;20376;-88
2023/01/20 10:28:21;;;;;;;36.72;17.17;;;1.80;99.90;;;;;;5140859;27;20402;-88
2023/01/20 10:30:47;;;;;;;32.00;15.32;;;1.80;99.90;;;;;;5113924;27;20039;-85
2023/01/20 10:33:19;;;;;;;36.13;16.10;;;1.80;99.90;;;;;;5123419;28;20499;-89
2023/01/20 10:35:53;;;;;;;33.08;14.63;;;1.80;99.90;;;;;;5128794;27;20115;-89
2023/01/20 10:38:37;;;;;;;30.90;14.85;;;1.80;99.90;;;;;;5132095;27;20421;-90
2023/01/20 10:41:22;;;;;;;30.67;13.48;;;1.80;99.90;;;;;;5141052;27;20055;-88
2023/01/20 10:43:48;;;;;;;31.67;13.82;;;1.80;99.90;;;;;;5113343;28;20466;-89
2023/01/20 10:46:29;;;;;;;31.95;14.45;;;1.80;99.90;;;;;;5111473;27;20425;-87
2023/01/20 10:49:19;;;;;;;27.13;13.77;;;1.80;99.90;;;;;;5112253;28;20039;-90
2023/01/20 10:51:51;;;;;;;31.85;15.38;;;1.80;99.90;;;;;;5111588;28;20050;-89
2023/01/20 10:54:41;;;;;;;26.83;13.23;;;1.80;99.90;;;;;;5111194;28;20388;-90
2023/01/20 10:57:12;;;;;;;27.50;12.98;;;1.90;99.90;;;;;;5093921;28;20036;-90
2023/01/20 10:59:40;;;;;;;33.97;13.98;;;1.90;99.90;;;;;;5102736;28;20076;-89
2023/01/20 11:02:30;;;;;;;32.33;14.95;;;1.90;99.90;;;;;;5107664;27;20087;-89
2023/01/20 11:05:21;;;;;;;30.98;14.57;;;2.00;99.90;;;;;;5129369;27;20036;-89
2023/01/20 11:07:49;;;;;;;30.42;14.48;;;2.00;99.90;;;;;;5103692;27;20049;-86
2023/01/20 11:10:17;;;;;;;33.40;14.98;;;2.10;99.90;;;;;;5102379;28;20039;-85
2023/01/20 11:12:44;;;;;;;33.03;15.82;;;2.10;99.90;;;;;;5123585;27;20050;-84
2023/01/20 11:15:20;;;;;;;31.17;14.80;;;2.10;99.90;;;;;;5099023;28;20423;-85
2023/01/20 11:18:06;;;;;;;33.40;15.40;;;2.00;99.90;;;;;;5134726;27;20121;-84
2023/01/20 11:20:35;;;;;;;31.58;15.65;;;2.00;99.90;;;;;;5109620;27;20043;-84
2023/01/20 11:23:01;;;;;;;32.50;15.20;;;2.00;99.90;;;;;;5098801;27;20380;-84
2023/01/20 11:25:27;;;;;;;34.13;14.60;;;1.90;99.90;;;;;;5115189;27;20054;-84
2023/01/20 11:27:52;;;;;;;32.53;14.80;;;2.00;99.90;;;;;;5097942;27;20054;-84
2023/01/20 11:30:26;;;;;;;31.75;15.18;;;1.90;99.90;;;;;;5134191;27;20088;-84
2023/01/20 11:33:22;;;;;;;29.77;13.77;;;2.00;99.90;;;;;;5130727;27;20046;-84
2023/01/20 11:36:01;;;;;;;30.17;13.50;;;2.00;99.90;;;;;;5132806;27;20044;-84
2023/01/20 11:38:39;;;;;;;31.17;15.30;;;2.00;99.90;;;;;;5115271;27;20039;-84
2023/01/20 11:41:16;;;;;;;38.17;16.38;;;2.00;99.90;;;;;;5128996;27;20487;-84
2023/01/20 11:43:41;;;;;;;35.13;14.98;;;2.00;99.90;;;;;;5100808;27;20039;-83
2023/01/20 11:46:27;;;;;;;31.45;14.90;;;2.00;99.90;;;;;;5113034;27;20078;-83
2023/01/20 11:49:25;;;;;;;36.90;15.40;;;2.00;99.90;;;;;;5112781;27;20094;-82
2023/01/20 11:51:53;;;;;;;32.20;14.95;;;2.10;99.90;;;;;;5080347;27;20043;-86
2023/01/20 11:54:25;;;;;;;35.13;15.60;;;2.00;99.90;;;;;;5097600;27;20092;-85
2023/01/20 11:56:54;;;;;;;31.90;15.20;;;2.00;99.90;;;;;;5115017;27;20074;-84
2023/01/20 11:59:26;;;;;;;35.55;16.42;;;2.00;99.90;;;;;;5140897;27;20031;-85
2023/01/20 12:02:07;;;;;;;34.72;15.68;;;2.00;99.90;;;;;;5111703;27;20047;-84
2023/01/20 12:05:08;;;;;;;30.95;15.65;;;2.00;99.90;;;;;;5100768;27;20111;-84
2023/01/20 12:07:43;;;;;;;32.25;14.35;;;2.00;99.90;;;;;;5115202;27;20042;-86
2023/01/20 12:10:22;;;;;;;29.73;13.20;;;2.00;99.90;;;;;;5138209;27;20031;-87
2023/01/20 12:12:50;;;;;;;31.38;15.57;;;2.00;99.90;;;;;;5124461;27;20055;-87
2023/01/20 12:15:21;;;;;;;33.17;15.68;;;2.10;99.90;;;;;;5148504;27;20446;-89
2023/01/20 12:17:56;;;;;;;33.30;15.65;;;2.10;99.90;;;;;;5107702;27;20078;-86
2023/01/20 12:20:57;;;;;;;30.67;14.68;;;2.10;99.90;;;;;;5137926;27;20099;-85
2023/01/20 12:23:44;;;;;;;30.42;14.00;;;2.10;99.90;;;;;;5104660;27;20031;-84
2023/01/20 12:26:13;;;;;;;33.00;13.40;;;2.10;99.90;;;;;;5114394;27;20046;-84
2023/01/20 12:28:58;;;;;;;34.22;14.93;;;2.10;99.90;;;;;;5101004;27;20034;-85
2023/01/20 12:31:24;;;;;;;33.72;15.60;;;2.20;99.90;;;;;;5126488;27;20063;-84
2023/01/20 12:34:02;;;;;;;33.38;14.88;;;2.20;99.90;;;;;;5115696;27;20023;-84
2023/01/20 12:36:39;;;;;;;33.85;15.88;;;2.20;99.90;;;;;;5119356;27;20738;-85
2023/01/20 12:39:16;;;;;;;35.30;16.88;;;2.20;99.90;;;;;;5096179;27;20364;-84
2023/01/20 12:42:08;;;;;;;32.15;15.50;;;2.20;99.90;;;;;;5129015;27;20369;-85
2023/01/20 12:44:56;;;;;;;31.30;14.75;;;2.30;99.90;;;;;;5101910;28;20031;-83
2023/01/20 12:48:09;;;;;;;32.08;14.55;;;2.20;99.90;;;;;;5119590;27;20373;-84
2023/01/20 12:50:52;;;;;;;30.55;14.90;;;2.20;99.90;;;;;;5107736;27;20036;-84
2023/01/20 12:53:37;;;;;;;28.58;15.00;;;2.20;99.90;;;;;;5109480;27;20382;-84
2023/01/20 12:56:43;;;;;;;29.42;14.73;;;2.20;99.90;;;;;;5111823;27;20043;-86
2023/01/20 12:59:24;;;;;;;29.38;14.77;;;2.20;99.90;;;;;;5093178;27;20032;-85
2023/01/20 13:02:07;;;;;;;31.45;13.18;;;2.20;99.90;;;;;;5099597;27;20047;-83
2023/01/20 13:04:44;;;;;;;31.48;15.45;;;2.20;99.90;;;;;;5119579;27;20043;-85
2023/01/20 13:07:40;;;;;;;34.17;15.93;;;2.20;99.90;;;;;;5093777;27;20035;-86
2023/01/20 13:10:14;;;;;;;29.90;13.50;;;2.30;99.90;;;;;;5098356;27;20039;-86